sensor_id;sensor_type;location;lat;lon;timestamp;P1;durP1;ratioP1;P2;durP2;ratioP2
75071;SDS011;63651;55.728;38.022;2024-02-28T00:02:26;12.77;;;8.77;;
75071;SDS011;63651;55.728;38.022;2024-02-28T00:07:31;13.57;;;8.88;;
75071;SDS011;63651;55.728;38.022;2024-02-28T00:12:33;10.77;;;7.60;;
75071;SDS011;63651;55.728;38.022;2024-02-28T00:17:39;12.43;;;7.65;;
75071;SDS011;63651;55.728;38.022;2024-02-28T00:28:02;10.35;;;6.60;;
75071;SDS011;63651;55.728;38.022;2024-02-28T00:33:06;9.80;;;6.43;;
75071;SDS011;63651;55.728;38.022;2024-02-28T00:38:08;8.95;;;6.43;;
75071;SDS011;63651;55.728;38.022;2024-02-28T00:43:10;10.23;;;6.70;;
75071;SDS011;63651;55.728;38.022;2024-02-28T00:48:12;9.63;;;6.15;;
75071;SDS011;63651;55.728;38.022;2024-02-28T00:53:15;9.48;;;6.47;;
75071;SDS011;63651;55.728;38.022;2024-02-28T00:58:16;10.10;;;6.70;;
75071;SDS011;63651;55.728;38.022;2024-02-28T01:03:19;11.20;;;6.13;;
75071;SDS011;63651;55.728;38.022;2024-02-28T01:08:21;8.18;;;5.43;;
75071;SDS011;63651;55.728;38.022;2024-02-28T01:13:22;8.88;;;5.45;;
75071;SDS011;63651;55.728;38.022;2024-02-28T01:18:24;7.90;;;5.35;;
75071;SDS011;63651;55.728;38.022;2024-02-28T01:23:27;7.85;;;5.40;;
75071;SDS011;63651;55.728;38.022;2024-02-28T01:28:29;9.10;;;5.60;;
75071;SDS011;63651;55.728;38.022;2024-02-28T01:33:31;6.32;;;4.43;;
75071;SDS011;63651;55.728;38.022;2024-02-28T01:38:33;8.93;;;5.30;;
75071;SDS011;63651;55.728;38.022;2024-02-28T01:43:35;7.65;;;4.43;;
75071;SDS011;63651;55.728;38.022;2024-02-28T01:48:38;6.13;;;4.03;;
75071;SDS011;63651;55.728;38.022;2024-02-28T01:53:41;7.00;;;4.00;;
75071;SDS011;63651;55.728;38.022;2024-02-28T01:58:43;6.60;;;3.85;;
75071;SDS011;63651;55.728;38.022;2024-02-28T02:03:48;5.95;;;3.40;;
75071;SDS011;63651;55.728;38.022;2024-02-28T02:08:49;8.38;;;3.45;;
75071;SDS011;63651;55.728;38.022;2024-02-28T02:13:51;5.55;;;4.07;;
75071;SDS011;63651;55.728;38.022;2024-02-28T02:18:53;8.10;;;3.60;;
75071;SDS011;63651;55.728;38.022;2024-02-28T02:23:56;5.43;;;3.75;;
75071;SDS011;63651;55.728;38.022;2024-02-28T02:28:57;6.07;;;3.88;;
75071;SDS011;63651;55.728;38.022;2024-02-28T02:33:59;7.03;;;3.55;;
75071;SDS011;63651;55.728;38.022;2024-02-28T02:39:02;6.15;;;3.42;;
75071;SDS011;63651;55.728;38.022;2024-02-28T02:44:05;5.18;;;3.28;;
75071;SDS011;63651;55.728;38.022;2024-02-28T02:49:07;5.57;;;3.60;;
75071;SDS011;63651;55.728;38.022;2024-02-28T02:54:10;4.90;;;3.22;;
75071;SDS011;63651;55.728;38.022;2024-02-28T02:59:12;6.07;;;3.38;;
75071;SDS011;63651;55.728;38.022;2024-02-28T03:04:14;4.57;;;3.00;;
75071;SDS011;63651;55.728;38.022;2024-02-28T03:09:16;4.85;;;3.20;;
75071;SDS011;63651;55.728;38.022;2024-02-28T03:14:19;4.45;;;2.97;;
75071;SDS011;63651;55.728;38.022;2024-02-28T03:19:23;4.55;;;2.90;;
75071;SDS011;63651;55.728;38.022;2024-02-28T03:24:25;5.28;;;3.20;;
75071;SDS011;63651;55.728;38.022;2024-02-28T03:29:28;4.72;;;3.08;;
75071;SDS011;63651;55.728;38.022;2024-02-28T03:34:30;4.70;;;2.70;;
75071;SDS011;63651;55.728;38.022;2024-02-28T03:39:33;4.20;;;2.70;;
75071;SDS011;63651;55.728;38.022;2024-02-28T03:44:36;4.13;;;2.92;;
75071;SDS011;63651;55.728;38.022;2024-02-28T03:49:38;4.72;;;2.35;;
75071;SDS011;63651;55.728;38.022;2024-02-28T03:54:42;6.63;;;2.97;;
75071;SDS011;63651;55.728;38.022;2024-02-28T03:59:46;5.30;;;2.65;;
75071;SDS011;63651;55.728;38.022;2024-02-28T04:04:49;4.93;;;2.63;;
75071;SDS011;63651;55.728;38.022;2024-02-28T04:09:51;3.83;;;2.67;;
75071;SDS011;63651;55.728;38.022;2024-02-28T04:14:52;5.05;;;2.50;;
75071;SDS011;63651;55.728;38.022;2024-02-28T04:19:56;5.47;;;2.72;;
75071;SDS011;63651;55.728;38.022;2024-02-28T04:24:59;4.55;;;2.55;;
75071;SDS011;63651;55.728;38.022;2024-02-28T04:30:01;4.53;;;2.80;;
75071;SDS011;63651;55.728;38.022;2024-02-28T04:35:06;6.63;;;3.30;;
75071;SDS011;63651;55.728;38.022;2024-02-28T04:40:09;6.57;;;3.00;;
75071;SDS011;63651;55.728;38.022;2024-02-28T04:45:13;7.20;;;3.35;;
75071;SDS011;63651;55.728;38.022;2024-02-28T04:50:15;5.32;;;3.05;;
75071;SDS011;63651;55.728;38.022;2024-02-28T04:55:18;5.07;;;3.10;;
75071;SDS011;63651;55.728;38.022;2024-02-28T05:00:20;5.88;;;2.92;;
75071;SDS011;63651;55.728;38.022;2024-02-28T05:05:22;5.07;;;3.10;;
75071;SDS011;63651;55.728;38.022;2024-02-28T05:10:24;5.75;;;4.15;;
75071;SDS011;63651;55.728;38.022;2024-02-28T05:15:26;4.97;;;2.63;;
75071;SDS011;63651;55.728;38.022;2024-02-28T05:20:28;3.67;;;2.05;;
75071;SDS011;63651;55.728;38.022;2024-02-28T05:25:31;4.80;;;2.90;;
75071;SDS011;63651;55.728;38.022;2024-02-28T05:30:33;4.68;;;3.00;;
75071;SDS011;63651;55.728;38.022;2024-02-28T05:35:35;4.63;;;2.72;;
75071;SDS011;63651;55.728;38.022;2024-02-28T05:40:38;5.45;;;2.80;;
75071;SDS011;63651;55.728;38.022;2024-02-28T05:45:40;4.30;;;2.75;;
75071;SDS011;63651;55.728;38.022;2024-02-28T05:50:42;5.13;;;2.92;;
75071;SDS011;63651;55.728;38.022;2024-02-28T05:55:45;3.92;;;2.65;;
75071;SDS011;63651;55.728;38.022;2024-02-28T06:00:47;3.83;;;2.90;;
75071;SDS011;63651;55.728;38.022;2024-02-28T06:05:49;4.38;;;2.60;;
75071;SDS011;63651;55.728;38.022;2024-02-28T06:10:51;4.60;;;2.78;;
75071;SDS011;63651;55.728;38.022;2024-02-28T06:15:55;3.78;;;2.50;;
75071;SDS011;63651;55.728;38.022;2024-02-28T06:20:57;4.32;;;2.42;;
75071;SDS011;63651;55.728;38.022;2024-02-28T06:26:00;6.90;;;2.78;;
75071;SDS011;63651;55.728;38.022;2024-02-28T06:31:02;4.88;;;3.00;;
75071;SDS011;63651;55.728;38.022;2024-02-28T06:36:05;4.78;;;2.72;;
75071;SDS011;63651;55.728;38.022;2024-02-28T06:41:07;3.00;;;2.20;;
75071;SDS011;63651;55.728;38.022;2024-02-28T06:46:17;4.35;;;2.47;;
75071;SDS011;63651;55.728;38.022;2024-02-28T06:51:19;4.68;;;2.90;;
75071;SDS011;63651;55.728;38.022;2024-02-28T06:56:20;6.32;;;2.25;;
75071;SDS011;63651;55.728;38.022;2024-02-28T07:01:23;5.28;;;2.78;;
75071;SDS011;63651;55.728;38.022;2024-02-28T07:06:25;3.97;;;2.65;;
75071;SDS011;63651;55.728;38.022;2024-02-28T07:11:28;4.60;;;2.85;;
75071;SDS011;63651;55.728;38.022;2024-02-28T07:16:31;6.07;;;3.17;;
75071;SDS011;63651;55.728;38.022;2024-02-28T07:21:35;5.78;;;3.08;;
75071;SDS011;63651;55.728;38.022;2024-02-28T07:26:38;6.75;;;3.10;;
75071;SDS011;63651;55.728;38.022;2024-02-28T07:31:41;5.38;;;3.30;;
75071;SDS011;63651;55.728;38.022;2024-02-28T07:36:44;5.10;;;3.33;;
75071;SDS011;63651;55.728;38.022;2024-02-28T07:41:46;5.80;;;3.22;;
75071;SDS011;63651;55.728;38.022;2024-02-28T07:46:49;3.40;;;2.40;;
75071;SDS011;63651;55.728;38.022;2024-02-28T07:51:54;5.00;;;2.53;;
75071;SDS011;63651;55.728;38.022;2024-02-28T07:56:57;4.70;;;2.80;;
75071;SDS011;63651;55.728;38.022;2024-02-28T08:01:59;5.25;;;2.83;;
75071;SDS011;63651;55.728;38.022;2024-02-28T08:07:01;7.30;;;3.78;;
75071;SDS011;63651;55.728;38.022;2024-02-28T08:12:03;5.18;;;3.00;;
75071;SDS011;63651;55.728;38.022;2024-02-28T08:17:05;3.95;;;2.38;;
75071;SDS011;63651;55.728;38.022;2024-02-28T08:22:06;3.75;;;2.28;;
75071;SDS011;63651;55.728;38.022;2024-02-28T08:27:09;3.78;;;2.63;;
75071;SDS011;63651;55.728;38.022;2024-02-28T08:32:10;4.20;;;2.38;;
75071;SDS011;63651;55.728;38.022;2024-02-28T08:37:13;4.32;;;2.50;;
75071;SDS011;63651;55.728;38.022;2024-02-28T08:42:15;4.53;;;2.75;;
75071;SDS011;63651;55.728;38.022;2024-02-28T08:47:17;3.35;;;2.28;;
75071;SDS011;63651;55.728;38.022;2024-02-28T08:52:20;4.10;;;2.35;;
75071;SDS011;63651;55.728;38.022;2024-02-28T08:57:22;4.53;;;2.58;;
75071;SDS011;63651;55.728;38.022;2024-02-28T09:02:25;5.35;;;2.70;;
75071;SDS011;63651;55.728;38.022;2024-02-28T09:07:28;5.03;;;2.13;;
75071;SDS011;63651;55.728;38.022;2024-02-28T09:12:31;3.63;;;2.47;;
75071;SDS011;63651;55.728;38.022;2024-02-28T09:17:33;3.40;;;2.25;;
75071;SDS011;63651;55.728;38.022;2024-02-28T09:22:35;3.25;;;2.10;;
75071;SDS011;63651;55.728;38.022;2024-02-28T09:27:37;4.57;;;2.75;;
75071;SDS011;63651;55.728;38.022;2024-02-28T09:32:39;5.57;;;2.47;;
75071;SDS011;63651;55.728;38.022;2024-02-28T09:37:41;4.35;;;2.65;;
75071;SDS011;63651;55.728;38.022;2024-02-28T09:42:46;4.47;;;2.40;;
75071;SDS011;63651;55.728;38.022;2024-02-28T09:47:54;4.50;;;2.45;;
75071;SDS011;63651;55.728;38.022;2024-02-28T09:52:56;4.90;;;2.50;;
75071;SDS011;63651;55.728;38.022;2024-02-28T09:57:59;5.38;;;2.70;;
75071;SDS011;63651;55.728;38.022;2024-02-28T10:03:02;3.28;;;2.22;;
75071;SDS011;63651;55.728;38.022;2024-02-28T10:08:06;4.75;;;2.60;;
75071;SDS011;63651;55.728;38.022;2024-02-28T10:13:10;4.78;;;2.75;;
75071;SDS011;63651;55.728;38.022;2024-02-28T10:18:12;4.40;;;2.50;;
75071;SDS011;63651;55.728;38.022;2024-02-28T10:23:15;3.25;;;2.22;;
75071;SDS011;63651;55.728;38.022;2024-02-28T10:28:17;3.53;;;2.50;;
75071;SDS011;63651;55.728;38.022;2024-02-28T10:33:19;2.90;;;2.28;;
75071;SDS011;63651;55.728;38.022;2024-02-28T10:38:21;4.38;;;2.63;;
75071;SDS011;63651;55.728;38.022;2024-02-28T10:43:25;4.47;;;2.67;;
75071;SDS011;63651;55.728;38.022;2024-02-28T10:48:31;5.05;;;3.10;;
75071;SDS011;63651;55.728;38.022;2024-02-28T10:53:36;4.22;;;2.63;;
75071;SDS011;63651;55.728;38.022;2024-02-28T10:59:15;3.60;;;2.90;;
75071;SDS011;63651;55.728;38.022;2024-02-28T11:04:17;5.50;;;2.63;;
75071;SDS011;63651;55.728;38.022;2024-02-28T11:09:19;5.45;;;2.90;;
75071;SDS011;63651;55.728;38.022;2024-02-28T11:14:23;5.20;;;2.50;;
75071;SDS011;63651;55.728;38.022;2024-02-28T11:19:31;3.88;;;2.72;;
75071;SDS011;63651;55.728;38.022;2024-02-28T11:24:35;5.13;;;2.78;;
75071;SDS011;63651;55.728;38.022;2024-02-28T11:29:38;4.43;;;2.65;;
75071;SDS011;63651;55.728;38.022;2024-02-28T11:34:40;4.72;;;2.95;;
75071;SDS011;63651;55.728;38.022;2024-02-28T11:39:47;4.32;;;2.90;;
75071;SDS011;63651;55.728;38.022;2024-02-28T11:44:53;3.97;;;2.80;;
75071;SDS011;63651;55.728;38.022;2024-02-28T11:49:59;4.30;;;2.47;;
75071;SDS011;63651;55.728;38.022;2024-02-28T11:55:03;4.13;;;2.67;;
75071;SDS011;63651;55.728;38.022;2024-02-28T12:00:07;3.95;;;2.88;;
75071;SDS011;63651;55.728;38.022;2024-02-28T12:05:10;5.22;;;3.10;;
75071;SDS011;63651;55.728;38.022;2024-02-28T12:10:12;3.67;;;3.08;;
75071;SDS011;63651;55.728;38.022;2024-02-28T12:15:14;6.05;;;2.67;;
75071;SDS011;63651;55.728;38.022;2024-02-28T12:20:16;4.28;;;3.03;;
75071;SDS011;63651;55.728;38.022;2024-02-28T12:25:19;5.20;;;3.20;;
75071;SDS011;63651;55.728;38.022;2024-02-28T12:30:22;4.45;;;3.10;;
75071;SDS011;63651;55.728;38.022;2024-02-28T12:35:24;5.35;;;3.20;;
75071;SDS011;63651;55.728;38.022;2024-02-28T12:40:26;4.55;;;3.03;;
75071;SDS011;63651;55.728;38.022;2024-02-28T12:45:28;6.05;;;3.00;;
75071;SDS011;63651;55.728;38.022;2024-02-28T12:50:31;3.75;;;2.60;;
75071;SDS011;63651;55.728;38.022;2024-02-28T12:55:35;4.78;;;2.58;;
75071;SDS011;63651;55.728;38.022;2024-02-28T13:00:37;4.57;;;2.83;;
75071;SDS011;63651;55.728;38.022;2024-02-28T13:05:40;3.97;;;2.85;;
75071;SDS011;63651;55.728;38.022;2024-02-28T13:10:41;4.78;;;2.65;;
75071;SDS011;63651;55.728;38.022;2024-02-28T13:15:44;5.43;;;3.17;;
75071;SDS011;63651;55.728;38.022;2024-02-28T13:20:46;4.15;;;2.78;;
75071;SDS011;63651;55.728;38.022;2024-02-28T13:25:48;7.15;;;3.50;;
75071;SDS011;63651;55.728;38.022;2024-02-28T13:30:50;4.18;;;2.72;;
75071;SDS011;63651;55.728;38.022;2024-02-28T13:35:53;4.50;;;3.00;;
75071;SDS011;63651;55.728;38.022;2024-02-28T13:40:55;5.80;;;3.72;;
75071;SDS011;63651;55.728;38.022;2024-02-28T13:45:57;4.00;;;2.85;;
75071;SDS011;63651;55.728;38.022;2024-02-28T13:51:01;6.20;;;3.03;;
75071;SDS011;63651;55.728;38.022;2024-02-28T13:56:03;6.85;;;3.08;;
75071;SDS011;63651;55.728;38.022;2024-02-28T14:01:08;5.63;;;3.10;;
75071;SDS011;63651;55.728;38.022;2024-02-28T14:06:10;6.07;;;3.55;;
75071;SDS011;63651;55.728;38.022;2024-02-28T14:11:12;5.38;;;4.10;;
75071;SDS011;63651;55.728;38.022;2024-02-28T14:16:17;6.10;;;3.60;;
75071;SDS011;63651;55.728;38.022;2024-02-28T14:21:21;9.55;;;4.13;;
75071;SDS011;63651;55.728;38.022;2024-02-28T14:26:25;6.93;;;3.78;;
75071;SDS011;63651;55.728;38.022;2024-02-28T14:31:27;7.38;;;3.88;;
75071;SDS011;63651;55.728;38.022;2024-02-28T14:36:30;6.03;;;4.22;;
75071;SDS011;63651;55.728;38.022;2024-02-28T14:41:33;5.03;;;3.22;;
75071;SDS011;63651;55.728;38.022;2024-02-28T14:46:37;6.82;;;3.85;;
75071;SDS011;63651;55.728;38.022;2024-02-28T14:51:38;6.60;;;3.78;;
75071;SDS011;63651;55.728;38.022;2024-02-28T14:56:41;6.82;;;4.30;;
75071;SDS011;63651;55.728;38.022;2024-02-28T15:01:43;7.85;;;3.97;;
75071;SDS011;63651;55.728;38.022;2024-02-28T15:06:46;8.77;;;4.65;;
75071;SDS011;63651;55.728;38.022;2024-02-28T15:11:48;8.55;;;4.93;;
75071;SDS011;63651;55.728;38.022;2024-02-28T15:16:50;7.53;;;4.50;;
75071;SDS011;63651;55.728;38.022;2024-02-28T15:21:53;7.75;;;4.68;;
75071;SDS011;63651;55.728;38.022;2024-02-28T15:26:55;7.57;;;4.00;;
75071;SDS011;63651;55.728;38.022;2024-02-28T15:31:57;8.15;;;3.97;;
75071;SDS011;63651;55.728;38.022;2024-02-28T15:36:59;5.35;;;3.83;;
75071;SDS011;63651;55.728;38.022;2024-02-28T15:42:01;7.70;;;4.05;;
75071;SDS011;63651;55.728;38.022;2024-02-28T15:47:03;6.35;;;3.78;;
75071;SDS011;63651;55.728;38.022;2024-02-28T15:52:08;6.47;;;3.67;;
75071;SDS011;63651;55.728;38.022;2024-02-28T15:57:10;6.05;;;3.38;;
75071;SDS011;63651;55.728;38.022;2024-02-28T16:02:12;6.05;;;4.07;;
75071;SDS011;63651;55.728;38.022;2024-02-28T16:07:15;5.85;;;3.88;;
75071;SDS011;63651;55.728;38.022;2024-02-28T16:12:17;7.07;;;4.18;;
75071;SDS011;63651;55.728;38.022;2024-02-28T16:17:18;7.45;;;3.95;;
75071;SDS011;63651;55.728;38.022;2024-02-28T16:22:20;5.30;;;3.72;;
75071;SDS011;63651;55.728;38.022;2024-02-28T16:27:23;6.32;;;4.13;;
75071;SDS011;63651;55.728;38.022;2024-02-28T16:32:25;5.57;;;3.90;;
75071;SDS011;63651;55.728;38.022;2024-02-28T16:37:27;11.05;;;4.30;;
75071;SDS011;63651;55.728;38.022;2024-02-28T16:42:29;7.25;;;4.50;;
75071;SDS011;63651;55.728;38.022;2024-02-28T16:47:33;7.05;;;4.45;;
75071;SDS011;63651;55.728;38.022;2024-02-28T16:52:35;7.72;;;4.60;;
75071;SDS011;63651;55.728;38.022;2024-02-28T16:57:38;7.13;;;4.63;;
75071;SDS011;63651;55.728;38.022;2024-02-28T17:02:40;6.10;;;4.18;;
75071;SDS011;63651;55.728;38.022;2024-02-28T17:07:42;7.88;;;4.55;;
75071;SDS011;63651;55.728;38.022;2024-02-28T17:12:44;5.78;;;3.97;;
75071;SDS011;63651;55.728;38.022;2024-02-28T17:17:47;6.20;;;4.20;;
75071;SDS011;63651;55.728;38.022;2024-02-28T17:22:50;6.38;;;3.90;;
75071;SDS011;63651;55.728;38.022;2024-02-28T17:27:53;5.05;;;3.92;;
75071;SDS011;63651;55.728;38.022;2024-02-28T17:32:56;5.18;;;4.05;;
75071;SDS011;63651;55.728;38.022;2024-02-28T17:37:58;5.95;;;4.00;;
75071;SDS011;63651;55.728;38.022;2024-02-28T17:43:00;5.50;;;3.35;;
75071;SDS011;63651;55.728;38.022;2024-02-28T17:48:02;5.45;;;3.30;;
75071;SDS011;63651;55.728;38.022;2024-02-28T17:53:07;5.97;;;3.50;;
75071;SDS011;63651;55.728;38.022;2024-02-28T17:58:11;5.63;;;3.35;;
75071;SDS011;63651;55.728;38.022;2024-02-28T18:03:13;5.63;;;3.88;;
75071;SDS011;63651;55.728;38.022;2024-02-28T18:08:15;6.70;;;4.13;;
75071;SDS011;63651;55.728;38.022;2024-02-28T18:13:17;6.90;;;3.75;;
75071;SDS011;63651;55.728;38.022;2024-02-28T18:18:23;6.90;;;3.83;;
75071;SDS011;63651;55.728;38.022;2024-02-28T18:23:25;6.13;;;4.38;;
75071;SDS011;63651;55.728;38.022;2024-02-28T18:28:27;5.45;;;3.72;;
75071;SDS011;63651;55.728;38.022;2024-02-28T18:33:31;5.50;;;3.90;;
75071;SDS011;63651;55.728;38.022;2024-02-28T18:38:32;5.65;;;3.90;;
75071;SDS011;63651;55.728;38.022;2024-02-28T18:43:36;5.40;;;3.40;;
75071;SDS011;63651;55.728;38.022;2024-02-28T18:48:38;6.97;;;3.65;;
75071;SDS011;63651;55.728;38.022;2024-02-28T18:53:41;6.43;;;4.07;;
75071;SDS011;63651;55.728;38.022;2024-02-28T18:58:44;6.28;;;3.80;;
75071;SDS011;63651;55.728;38.022;2024-02-28T19:03:47;6.07;;;3.55;;
75071;SDS011;63651;55.728;38.022;2024-02-28T19:08:50;6.75;;;3.63;;
75071;SDS011;63651;55.728;38.022;2024-02-28T19:13:53;6.10;;;3.47;;
75071;SDS011;63651;55.728;38.022;2024-02-28T19:18:57;7.25;;;3.50;;
75071;SDS011;63651;55.728;38.022;2024-02-28T19:23:59;6.85;;;3.72;;
75071;SDS011;63651;55.728;38.022;2024-02-28T19:29:02;4.22;;;3.20;;
75071;SDS011;63651;55.728;38.022;2024-02-28T19:34:05;6.38;;;3.58;;
75071;SDS011;63651;55.728;38.022;2024-02-28T19:39:07;7.50;;;3.63;;
75071;SDS011;63651;55.728;38.022;2024-02-28T19:44:09;6.40;;;3.72;;
75071;SDS011;63651;55.728;38.022;2024-02-28T19:49:12;6.13;;;3.40;;
75071;SDS011;63651;55.728;38.022;2024-02-28T19:54:16;6.50;;;3.08;;
75071;SDS011;63651;55.728;38.022;2024-02-28T19:59:18;5.30;;;3.13;;
75071;SDS011;63651;55.728;38.022;2024-02-28T20:04:20;6.88;;;3.85;;
75071;SDS011;63651;55.728;38.022;2024-02-28T20:09:23;4.78;;;2.78;;
75071;SDS011;63651;55.728;38.022;2024-02-28T20:14:25;7.90;;;3.95;;
75071;SDS011;63651;55.728;38.022;2024-02-28T20:19:27;6.82;;;2.95;;
75071;SDS011;63651;55.728;38.022;2024-02-28T20:24:29;6.45;;;3.80;;
75071;SDS011;63651;55.728;38.022;2024-02-28T20:29:31;4.35;;;3.25;;
75071;SDS011;63651;55.728;38.022;2024-02-28T20:34:33;7.38;;;3.55;;
75071;SDS011;63651;55.728;38.022;2024-02-28T20:39:36;6.40;;;3.65;;
75071;SDS011;63651;55.728;38.022;2024-02-28T20:44:38;5.50;;;3.22;;
75071;SDS011;63651;55.728;38.022;2024-02-28T20:49:40;5.03;;;3.05;;
75071;SDS011;63651;55.728;38.022;2024-02-28T20:54:43;5.57;;;3.67;;
75071;SDS011;63651;55.728;38.022;2024-02-28T20:59:47;4.95;;;2.78;;
75071;SDS011;63651;55.728;38.022;2024-02-28T21:04:49;5.88;;;2.58;;
75071;SDS011;63651;55.728;38.022;2024-02-28T21:09:53;7.32;;;3.10;;
75071;SDS011;63651;55.728;38.022;2024-02-28T21:14:56;6.78;;;2.50;;
75071;SDS011;63651;55.728;38.022;2024-02-28T21:19:58;6.18;;;2.63;;
75071;SDS011;63651;55.728;38.022;2024-02-28T21:25:00;7.93;;;2.90;;
75071;SDS011;63651;55.728;38.022;2024-02-28T21:30:02;5.28;;;2.65;;
75071;SDS011;63651;55.728;38.022;2024-02-28T21:35:07;8.75;;;2.85;;
75071;SDS011;63651;55.728;38.022;2024-02-28T21:40:13;7.40;;;3.00;;
75071;SDS011;63651;55.728;38.022;2024-02-28T21:45:15;8.82;;;2.78;;
75071;SDS011;63651;55.728;38.022;2024-02-28T21:50:19;6.38;;;2.92;;
75071;SDS011;63651;55.728;38.022;2024-02-28T21:55:22;7.03;;;3.03;;
75071;SDS011;63651;55.728;38.022;2024-02-28T22:00:25;6.60;;;2.85;;
75071;SDS011;63651;55.728;38.022;2024-02-28T22:05:27;6.20;;;2.60;;
75071;SDS011;63651;55.728;38.022;2024-02-28T22:10:28;6.07;;;2.50;;
75071;SDS011;63651;55.728;38.022;2024-02-28T22:15:31;5.90;;;3.00;;
75071;SDS011;63651;55.728;38.022;2024-02-28T22:20:32;5.43;;;2.95;;
75071;SDS011;63651;55.728;38.022;2024-02-28T22:25:34;7.97;;;2.60;;
75071;SDS011;63651;55.728;38.022;2024-02-28T22:30:37;5.07;;;2.83;;
75071;SDS011;63651;55.728;38.022;2024-02-28T22:35:40;4.68;;;2.45;;
75071;SDS011;63651;55.728;38.022;2024-02-28T22:40:43;5.03;;;3.00;;
75071;SDS011;63651;55.728;38.022;2024-02-28T22:45:46;6.55;;;2.80;;
75071;SDS011;63651;55.728;38.022;2024-02-28T22:50:49;6.40;;;2.40;;
75071;SDS011;63651;55.728;38.022;2024-02-28T22:55:52;5.80;;;2.40;;
75071;SDS011;63651;55.728;38.022;2024-02-28T23:00:54;5.53;;;2.45;;
75071;SDS011;63651;55.728;38.022;2024-02-28T23:05:57;4.93;;;2.05;;
75071;SDS011;63651;55.728;38.022;2024-02-28T23:11:01;5.45;;;2.15;;
75071;SDS011;63651;55.728;38.022;2024-02-28T23:16:04;5.05;;;1.88;;
75071;SDS011;63651;55.728;38.022;2024-02-28T23:21:09;5.03;;;2.08;;
75071;SDS011;63651;55.728;38.022;2024-02-28T23:26:11;3.90;;;2.05;;
75071;SDS011;63651;55.728;38.022;2024-02-28T23:31:14;3.40;;;1.90;;
75071;SDS011;63651;55.728;38.022;2024-02-28T23:36:17;4.82;;;2.30;;
75071;SDS011;63651;55.728;38.022;2024-02-28T23:41:20;4.65;;;2.20;;
75071;SDS011;63651;55.728;38.022;2024-02-28T23:46:23;5.85;;;2.17;;
75071;SDS011;63651;55.728;38.022;2024-02-28T23:51:25;5.95;;;2.00;;
75071;SDS011;63651;55.728;38.022;2024-02-28T23:56:28;4.32;;;2.10;;
